Time;durP1;ratioP1;P1;durP2;ratioP2;P2;SDS_P1;SDS_P2;PMS_P1;PMS_P2;Temp;Humidity;BMP_temperature;BMP_pressure;BME280_temperature;BME280_humidity;BME280_pressure;Samples;Min_cycle;Max_cycle;Signal;HPM_P1;HPM_P2
2022/03/19 05:22:39;;;;;;;37.42;20.67;;;;;;;0.94;42.45;102644.81;4985426;28;106033;-72
2022/03/19 05:25:05;;;;;;;39.80;20.58;;;;;;;1.00;43.47;102649.91;4984072;28;106000;-76
2022/03/19 06:34:06;;;;;;;34.22;21.33;;;;;;;4.69;39.18;102673.56;5024216;27;1315024;-74
2022/03/19 06:39:15;;;;;;;33.95;20.23;;;;;;;5.08;38.94;102681.41;5045312;27;106428;-76
2022/03/19 06:41:40;;;;;;;39.38;18.83;;;;;;;5.18;39.63;102679.16;5044674;27;106744;-77
2022/03/19 06:44:06;;;;;;;36.78;20.33;;;;;;;5.22;39.13;102683.38;5044756;27;106507;-78
2022/03/19 06:46:31;;;;;;;35.05;20.17;;;;;;;5.31;39.48;102678.56;5045777;27;105855;-75
2022/03/19 06:48:57;;;;;;;32.50;18.35;;;;;;;5.47;39.45;102674.25;5045133;27;105784;-77
2022/03/19 06:51:22;;;;;;;33.83;19.35;;;;;;;5.56;39.06;102676.44;5032360;27;106498;-74
2022/03/19 06:53:49;;;;;;;31.65;19.23;;;;;;;5.68;39.10;102680.22;5024411;28;105865;-78
2022/03/19 06:56:15;;;;;;;36.35;19.13;;;;;;;5.81;38.91;102676.97;5025555;28;105942;-74
2022/03/19 12:04:05;;;;;;;12.95;10.65;;;;;;;44.59;2.18;102596.34;4987474;28;106033;-74
2022/03/19 12:06:36;;;;;;;13.82;10.32;;;;;;;45.18;2.17;102607.56;4929015;28;106350;-74
2022/03/19 12:09:02;;;;;;;20.63;13.18;;;;;;;45.54;2.16;102605.94;4771115;28;106285;-72
2022/03/19 12:11:27;;;;;;;13.32;11.02;;;;;;;45.33;2.25;102606.88;4958440;28;106101;-71
2022/03/19 12:13:53;;;;;;;13.25;10.20;;;;;;;44.49;2.26;102601.56;4998160;28;105893;-71
2022/03/19 12:16:42;;;;;;;11.82;10.57;;;;;;;43.47;2.11;102607.31;4985339;28;105951;-71
2022/03/19 12:19:09;;;;;;;15.18;10.73;;;;;;;43.36;2.63;102607.66;4977859;28;106218;-71
2022/03/19 12:21:37;;;;;;;15.23;10.50;;;;;;;43.18;2.58;102603.31;4984103;28;107181;-71
2022/03/19 12:24:14;;;;;;;12.07;10.18;;;;;;;43.85;2.39;102595.16;4984315;28;106028;-69
2022/03/19 12:26:42;;;;;;;15.13;10.90;;;;;;;44.87;1.88;102594.91;4983239;28;106647;-69
2022/03/19 12:29:10;;;;;;;13.90;10.73;;;;;;;44.20;2.18;102592.09;4984358;28;106176;-68
2022/03/19 12:31:38;;;;;;;13.80;10.18;;;;;;;43.68;2.35;102594.13;4983956;28;107956;-68
2022/03/19 12:34:05;;;;;;;12.98;10.85;;;;;;;42.73;2.12;102598.97;4983811;28;105781;-69
2022/03/19 12:36:31;;;;;;;15.35;11.60;;;;;;;42.56;2.28;102595.03;4984137;28;106033;-71
2022/03/19 12:39:03;;;;;;;14.88;11.75;;;;;;;42.38;2.31;102602.66;4981463;28;106444;-71
2022/03/19 12:41:31;;;;;;;12.60;11.27;;;;;;;41.70;2.36;102585.47;4980816;28;108021;-69
2022/03/19 12:44:21;;;;;;;16.90;11.93;;;;;;;41.80;2.77;102592.75;4982078;28;106322;-68
2022/03/19 12:46:53;;;;;;;12.55;11.23;;;;;;;41.94;2.82;102590.63;4980348;28;106408;-70
2022/03/19 12:49:18;;;;;;;18.15;12.27;;;;;;;42.37;2.36;102595.41;4982707;28;106036;-71
2022/03/19 12:51:46;;;;;;;13.98;11.27;;;;;;;42.01;2.69;102593.75;4982786;28;106494;-68
2022/03/19 12:54:31;;;;;;;12.53;10.87;;;;;;;41.36;2.68;102595.38;4983948;28;105828;-69
2022/03/19 12:57:11;;;;;;;13.55;11.50;;;;;;;40.46;2.70;102585.19;4984268;28;106432;-69
2022/03/19 12:59:37;;;;;;;14.40;11.68;;;;;;;39.83;2.79;102593.31;4983855;28;106245;-69
2022/03/19 13:02:03;;;;;;;15.32;12.30;;;;;;;39.28;3.22;102583.84;4983031;28;106718;-71
2022/03/19 13:04:30;;;;;;;13.90;12.25;;;;;;;39.04;3.44;102570.91;4983552;28;105903;-70
2022/03/19 13:06:57;;;;;;;12.85;11.60;;;;;;;39.69;3.41;102580.22;4984292;28;106294;-71
2022/03/19 13:09:33;;;;;;;16.38;11.60;;;;;;;40.12;2.98;102575.41;4983954;28;105912;-71
2022/03/19 13:12:01;;;;;;;15.40;11.20;;;;;;;39.95;3.10;102576.88;4983582;28;106124;-71
2022/03/19 13:14:27;;;;;;;23.48;20.90;;;;;;;39.84;3.18;102581.03;4973791;28;106166;-71
2022/03/19 13:16:55;;;;;;;13.27;11.05;;;;;;;39.39;3.05;102588.06;4970972;28;106009;-71
2022/03/19 13:19:25;;;;;;;16.73;11.75;;;;;;;38.96;3.03;102579.97;4970561;28;106116;-70
2022/03/19 13:21:53;;;;;;;16.00;11.45;;;;;;;38.90;3.37;102575.63;4970376;28;106680;-71
2022/03/19 13:24:20;;;;;;;12.30;10.38;;;;;;;38.62;3.47;102578.31;4969971;28;105857;-70
2022/03/19 13:26:46;;;;;;;16.40;11.60;;;;;;;38.06;3.72;102580.84;4971009;28;105912;-71
2022/03/19 13:29:14;;;;;;;15.82;10.57;;;;;;;37.16;3.79;102574.97;4970164;28;106294;-70
2022/03/19 13:31:42;;;;;;;13.15;9.65;;;;;;;36.09;3.77;102564.44;4969827;28;109201;-70
2022/03/19 13:34:08;;;;;;;19.58;11.07;;;;;;;35.28;4.46;102568.34;4970768;28;106159;-70
2022/03/19 13:36:34;;;;;;;13.68;10.20;;;;;;;35.89;4.28;102575.66;4970784;28;106058;-69
2022/03/19 13:39:00;;;;;;;11.75;10.40;;;;;;;35.44;4.28;102561.69;4969569;28;106165;-70
2022/03/19 13:41:26;;;;;;;13.60;10.40;;;;;;;34.95;4.42;102562.31;4969521;28;107371;-70
2022/03/19 13:43:52;;;;;;;14.73;10.70;;;;;;;35.15;4.24;102567.00;4969537;28;106643;-71
2022/03/19 13:46:20;;;;;;;13.30;10.35;;;;;;;35.42;4.19;102561.16;4970313;28;105805;-70
2022/03/19 13:48:48;;;;;;;15.13;10.60;;;;;;;36.01;3.90;102551.19;4969640;28;105921;-71
2022/03/19 13:51:13;;;;;;;15.07;10.85;;;;;;;35.28;4.17;102557.25;4968315;28;106090;-72
2022/03/19 13:53:45;;;;;;;16.60;10.73;;;;;;;34.61;4.13;102549.84;4969647;28;107016;-72
2022/03/19 13:56:11;;;;;;;14.68;10.43;;;;;;;33.80;4.26;102554.13;4970449;28;105921;-71
2022/03/19 13:58:37;;;;;;;16.67;9.70;;;;;;;32.45;4.72;102552.34;4969770;28;106129;-73
2022/03/19 14:01:16;;;;;;;12.75;9.93;;;;;;;31.76;4.99;102558.47;4969954;28;106550;-73
2022/03/19 14:03:41;;;;;;;12.30;9.55;;;;;;;31.02;5.05;102547.50;4967377;28;107209;-72
